createdAt,value
2023-05-08T00:00:55.119Z,101112.91
2023-05-08T00:04:11.272Z,101103.00
2023-05-08T00:06:51.299Z,101105.78
2023-05-08T00:09:39.307Z,101106.59
2023-05-08T00:12:32.519Z,101110.31
2023-05-08T00:19:39.631Z,101101.03
2023-05-08T00:22:10.880Z,101099.50
2023-05-08T00:24:56.144Z,101100.47
2023-05-08T00:28:10.198Z,101101.59
2023-05-08T00:31:04.244Z,101103.56
2023-05-08T00:34:00.202Z,101103.63
2023-05-08T00:37:05.219Z,101108.13
2023-05-08T00:39:43.429Z,101099.06
2023-05-08T00:42:27.178Z,101099.50
2023-05-08T00:45:10.265Z,101089.75
2023-05-08T00:48:05.112Z,101091.38
2023-05-08T00:50:36.024Z,101099.38
2023-05-08T00:53:21.334Z,101097.97
2023-05-08T00:56:00.423Z,101096.81
2023-05-08T00:58:56.105Z,101092.13
2023-05-08T01:01:27.084Z,101091.97
2023-05-08T01:04:06.834Z,101095.53
2023-05-08T01:06:39.704Z,101090.88
2023-05-08T01:09:09.964Z,101083.63
2023-05-08T01:11:49.227Z,101078.66
2023-05-08T01:14:54.001Z,101081.94
2023-05-08T01:17:39.323Z,101085.53
2023-05-08T01:20:35.620Z,101077.72
2023-05-08T01:23:23.325Z,101072.81
2023-05-08T01:25:55.039Z,101075.34
2023-05-08T01:28:36.109Z,101072.69
2023-05-08T01:31:48.840Z,101075.78
2023-05-08T01:34:59.492Z,101069.41
2023-05-08T01:37:47.422Z,101067.09
2023-05-08T01:40:43.093Z,101069.06
2023-05-08T01:43:26.467Z,101075.38
2023-05-08T01:45:57.673Z,101068.38
2023-05-08T01:48:37.104Z,101060.88
2023-05-08T01:51:20.762Z,101060.19
2023-05-08T01:54:02.148Z,101062.69
2023-05-08T01:56:32.272Z,101061.72
2023-05-08T01:59:03.682Z,101061.84
2023-05-08T02:01:35.402Z,101060.28
2023-05-08T02:04:07.379Z,101062.47
2023-05-08T02:06:40.082Z,101049.69
2023-05-08T02:09:12.135Z,101053.06
2023-05-08T02:11:44.188Z,101049.31
2023-05-08T02:14:16.045Z,101043.16
2023-05-08T02:16:46.864Z,101041.56
2023-05-08T02:19:18.326Z,101044.28
2023-05-08T02:21:49.496Z,101038.75
2023-05-08T02:24:19.197Z,101042.19
2023-05-08T02:26:49.735Z,101045.31
2023-05-08T02:29:20.333Z,101041.78
2023-05-08T02:31:50.939Z,101047.22
2023-05-08T02:34:25.589Z,101039.41
2023-05-08T02:36:56.132Z,101048.09
2023-05-08T02:39:30.111Z,101050.00
2023-05-08T02:42:00.456Z,101050.16
2023-05-08T02:44:30.302Z,101049.31
2023-05-08T02:47:10.246Z,101050.28
2023-05-08T02:50:08.433Z,101043.06
2023-05-08T02:52:50.212Z,101048.69
2023-05-08T02:55:50.152Z,101048.25
2023-05-08T02:58:26.307Z,101042.81
2023-05-08T03:01:09.361Z,101043.06
2023-05-08T03:03:46.445Z,101057.06
2023-05-08T03:06:20.551Z,101056.34
2023-05-08T03:08:56.151Z,101054.91
2023-05-08T03:11:38.574Z,101055.78
2023-05-08T03:14:15.631Z,101063.81
2023-05-08T03:16:59.838Z,101059.06
2023-05-08T03:19:36.051Z,101062.91
2023-05-08T03:22:12.635Z,101070.59
2023-05-08T03:24:50.342Z,101063.22
2023-05-08T03:27:21.379Z,101069.63
2023-05-08T03:29:53.235Z,101068.81
2023-05-08T03:32:25.733Z,101069.56
2023-05-08T03:34:56.953Z,101076.50
2023-05-08T03:37:31.060Z,101065.00
2023-05-08T03:40:00.812Z,101072.31
2023-05-08T03:42:33.242Z,101069.50
2023-05-08T03:45:07.788Z,101067.59
2023-05-08T03:47:51.818Z,101074.81
2023-05-08T03:50:53.410Z,101077.25
2023-05-08T03:53:36.822Z,101073.97
2023-05-08T03:56:06.822Z,101070.81
2023-05-08T03:59:11.680Z,101070.03
2023-05-08T04:02:11.067Z,101072.44
2023-05-08T04:04:47.663Z,101072.44
2023-05-08T04:07:48.457Z,101074.84
2023-05-08T04:10:33.819Z,101075.69
2023-05-08T04:13:17.174Z,101075.34
2023-05-08T04:16:02.208Z,101071.75
2023-05-08T04:18:33.858Z,101071.72
2023-05-08T04:21:09.683Z,101073.38
2023-05-08T04:23:42.195Z,101081.38
2023-05-08T04:26:15.915Z,101073.47
2023-05-08T04:28:47.855Z,101081.41
2023-05-08T04:31:23.407Z,101079.41
2023-05-08T04:33:56.453Z,101080.25
2023-05-08T04:36:27.310Z,101091.00
2023-05-08T04:38:57.724Z,101085.50
2023-05-08T04:41:28.394Z,101085.91
2023-05-08T04:43:58.337Z,101083.16
2023-05-08T04:46:30.667Z,101090.31
2023-05-08T04:49:00.328Z,101089.50
2023-05-08T04:51:35.336Z,101099.50
2023-05-08T04:54:04.871Z,101096.34
2023-05-08T04:56:34.252Z,101091.91
2023-05-08T04:59:03.694Z,101103.88
2023-05-08T05:01:33.314Z,101100.72
2023-05-08T05:04:02.952Z,101099.84
2023-05-08T05:06:32.620Z,101098.56
2023-05-08T05:09:01.871Z,101104.53
2023-05-08T05:11:31.453Z,101106.88
2023-05-08T05:14:00.877Z,101106.03
2023-05-08T05:16:30.501Z,101112.38
2023-05-08T05:18:59.820Z,101112.34
2023-05-08T05:21:29.518Z,101107.19
2023-05-08T05:24:00.279Z,101113.84
2023-05-08T05:26:30.444Z,101112.22
2023-05-08T05:29:00.309Z,101112.97
2023-05-08T05:31:30.866Z,101119.34
2023-05-08T05:34:00.417Z,101118.78
2023-05-08T05:36:30.295Z,101119.66
2023-05-08T05:38:59.635Z,101110.09
2023-05-08T05:41:31.387Z,101114.84
2023-05-08T05:44:01.217Z,101115.69
2023-05-08T05:46:33.359Z,101123.19
2023-05-08T05:49:05.009Z,101126.69
2023-05-08T05:51:35.438Z,101122.31
2023-05-08T05:54:04.917Z,101128.19
2023-05-08T05:56:34.099Z,101126.34
2023-05-08T05:59:03.582Z,101127.44
2023-05-08T06:01:32.972Z,101123.97
2023-05-08T06:04:02.342Z,101128.69
2023-05-08T06:06:32.868Z,101125.81
2023-05-08T06:09:04.088Z,101128.66
2023-05-08T06:11:33.372Z,101124.53
2023-05-08T06:14:02.897Z,101121.88
2023-05-08T06:16:33.045Z,101131.47
2023-05-08T06:19:02.344Z,101131.13
2023-05-08T06:21:31.688Z,101131.50
2023-05-08T06:24:01.033Z,101130.25
2023-05-08T06:26:30.307Z,101127.84
2023-05-08T06:28:59.538Z,101125.84
2023-05-08T06:31:30.171Z,101121.03
2023-05-08T06:33:59.531Z,101132.16
2023-05-08T06:36:28.660Z,101130.47
2023-05-08T06:38:58.004Z,101137.63
2023-05-08T06:41:27.711Z,101125.06
2023-05-08T06:43:56.876Z,101120.28
2023-05-08T06:46:27.057Z,101122.69
2023-05-08T06:48:56.268Z,101122.28
2023-05-08T06:51:25.414Z,101130.53
2023-05-08T06:53:54.640Z,101127.28
2023-05-08T06:56:23.845Z,101127.28
2023-05-08T06:59:04.501Z,101131.25
2023-05-08T07:01:38.313Z,101124.13
2023-05-08T07:04:07.760Z,101128.94
2023-05-08T07:06:37.101Z,101130.09
2023-05-08T07:09:06.415Z,101123.50
2023-05-08T07:11:35.592Z,101120.84
2023-05-08T07:14:05.213Z,101116.00
2023-05-08T07:16:34.680Z,101109.50
2023-05-08T07:19:04.102Z,101109.53
2023-05-08T07:21:33.388Z,101111.09
2023-05-08T07:24:02.693Z,101107.84
2023-05-08T07:26:31.852Z,101104.66
2023-05-08T07:29:00.994Z,101103.78
2023-05-08T07:31:30.366Z,101101.00
2023-05-08T07:33:59.729Z,101101.44
2023-05-08T07:36:29.287Z,101108.00
2023-05-08T07:38:58.657Z,101097.00
2023-05-08T07:41:28.012Z,101097.75
2023-05-08T07:43:57.411Z,101097.53
2023-05-08T07:46:27.037Z,101097.06
2023-05-08T07:48:56.622Z,101084.72
2023-05-08T07:51:26.014Z,101088.78
2023-05-08T07:53:55.976Z,101087.91
2023-05-08T07:56:25.352Z,101086.31
2023-05-08T07:58:54.708Z,101088.50
2023-05-08T08:01:23.883Z,101087.38
2023-05-08T08:03:53.165Z,101086.97
2023-05-08T08:06:22.467Z,101083.00
2023-05-08T08:08:51.620Z,101078.69
2023-05-08T08:11:21.156Z,101074.97
2023-05-08T08:13:50.297Z,101075.13
2023-05-08T08:16:19.574Z,101075.06
2023-05-08T08:18:49.794Z,101085.22
2023-05-08T08:21:18.938Z,101071.97
2023-05-08T08:23:48.159Z,101075.22
2023-05-08T08:26:17.406Z,101081.34
2023-05-08T08:28:46.914Z,101070.59
2023-05-08T08:31:17.323Z,101071.09
2023-05-08T08:33:47.579Z,101070.03
2023-05-08T08:36:17.432Z,101067.81
2023-05-08T08:38:46.733Z,101066.16
2023-05-08T08:41:16.469Z,101065.84
2023-05-08T08:43:45.651Z,101067.84
2023-05-08T08:46:16.164Z,101067.13
2023-05-08T08:48:47.922Z,101064.47
2023-05-08T08:51:26.553Z,101065.44
2023-05-08T08:54:06.228Z,101063.06
2023-05-08T08:56:37.382Z,101061.09
2023-05-08T08:59:07.507Z,101057.53
2023-05-08T09:01:40.385Z,101054.28
2023-05-08T09:04:09.957Z,101055.13
2023-05-08T09:06:41.996Z,101056.22
2023-05-08T09:09:14.797Z,101058.56
2023-05-08T09:11:47.432Z,101052.84
2023-05-08T09:14:16.600Z,101045.47
2023-05-08T09:16:48.653Z,101050.59
2023-05-08T09:19:18.294Z,101043.09
2023-05-08T09:21:47.734Z,101046.22
2023-05-08T09:24:16.966Z,101031.97
2023-05-08T09:26:46.146Z,101036.69
2023-05-08T09:29:16.773Z,101029.56
2023-05-08T09:31:48.333Z,101036.72
2023-05-08T09:34:34.265Z,101035.50
2023-05-08T09:37:06.647Z,101026.72
2023-05-08T09:39:36.070Z,101023.66
2023-05-08T09:42:06.859Z,101022.22
2023-05-08T09:45:02.266Z,101024.44
2023-05-08T09:47:32.065Z,101019.59
2023-05-08T09:50:12.565Z,101014.06
2023-05-08T09:52:49.558Z,101019.38
2023-05-08T09:55:19.365Z,101015.91
2023-05-08T09:57:58.083Z,101018.28
2023-05-08T10:00:29.060Z,101021.59
2023-05-08T10:02:59.816Z,101019.28
2023-05-08T10:05:36.669Z,101024.34
2023-05-08T10:08:21.992Z,101020.69
2023-05-08T10:10:51.627Z,101022.22
2023-05-08T10:13:20.839Z,101019.88
2023-05-08T10:15:54.453Z,101013.53
2023-05-08T10:18:31.132Z,101008.88
2023-05-08T10:21:02.559Z,101014.91
2023-05-08T10:23:34.275Z,101012.94
2023-05-08T10:26:13.455Z,101016.09
2023-05-08T10:28:45.946Z,101016.09
2023-05-08T10:31:19.499Z,101018.09
2023-05-08T10:33:53.187Z,101020.88
2023-05-08T10:36:26.254Z,101014.59
2023-05-08T10:38:56.199Z,101022.59
2023-05-08T10:41:25.677Z,101010.63
2023-05-08T10:43:55.631Z,101007.38
2023-05-08T10:46:52.569Z,101012.53
2023-05-08T10:49:42.262Z,101007.38
2023-05-08T10:52:20.188Z,101011.31
2023-05-08T10:54:55.411Z,101012.91
2023-05-08T10:57:24.597Z,101015.28
2023-05-08T10:59:53.786Z,101011.66
2023-05-08T11:02:31.109Z,101008.06
2023-05-08T11:05:21.314Z,101017.56
2023-05-08T11:08:20.331Z,101021.16
2023-05-08T11:11:02.626Z,101012.03
2023-05-08T11:13:49.574Z,101013.22
2023-05-08T11:16:19.117Z,101013.06
2023-05-08T11:19:19.274Z,101012.75
2023-05-08T11:22:14.475Z,101006.75
2023-05-08T11:24:56.934Z,101017.16
2023-05-08T11:27:52.038Z,101006.06
2023-05-08T11:30:27.613Z,101002.09
2023-05-08T11:33:06.311Z,101005.63
2023-05-08T11:35:49.030Z,100999.19
2023-05-08T11:38:36.731Z,101006.28
2023-05-08T11:41:22.565Z,101010.22
2023-05-08T11:44:10.858Z,101009.94
2023-05-08T11:46:59.649Z,100995.31
2023-05-08T11:49:30.819Z,101000.06
2023-05-08T11:52:01.140Z,100998.06
2023-05-08T11:54:32.442Z,100999.25
2023-05-08T11:57:02.603Z,100996.13
2023-05-08T11:59:37.772Z,100995.75
2023-05-08T12:02:09.598Z,100999.34
2023-05-08T12:04:47.474Z,100995.38
2023-05-08T12:07:17.342Z,100995.38
2023-05-08T12:09:48.180Z,100985.69
2023-05-08T12:12:17.441Z,100980.13
2023-05-08T12:14:52.037Z,100984.91
2023-05-08T12:17:21.484Z,100988.84
2023-05-08T12:19:55.411Z,100990.53
2023-05-08T12:22:24.875Z,100991.63
2023-05-08T12:24:54.174Z,100981.84
2023-05-08T12:27:23.380Z,100992.19
2023-05-08T12:29:52.647Z,100988.19
2023-05-08T12:32:22.023Z,100986.56
2023-05-08T12:34:51.645Z,100982.53
2023-05-08T12:37:30.569Z,100978.56
2023-05-08T12:39:59.875Z,100984.91
2023-05-08T12:42:52.011Z,100974.56
2023-05-08T12:45:23.304Z,100972.94
2023-05-08T12:47:54.287Z,100968.47
2023-05-08T12:50:23.894Z,100967.19
2023-05-08T12:52:53.640Z,100967.19
2023-05-08T12:55:30.983Z,100961.25
2023-05-08T12:58:06.137Z,100970.34
2023-05-08T13:00:48.269Z,100964.00
2023-05-08T13:03:32.622Z,100963.59
2023-05-08T13:06:02.188Z,100963.97
2023-05-08T13:08:39.450Z,100974.28
2023-05-08T13:11:08.996Z,100969.34
2023-05-08T13:13:38.759Z,100972.06
2023-05-08T13:16:09.468Z,100977.06
2023-05-08T13:18:38.882Z,100984.63
2023-05-08T13:21:09.274Z,100984.28
2023-05-08T13:23:38.498Z,100987.53
2023-05-08T13:26:07.645Z,100989.81
2023-05-08T13:28:37.226Z,100988.38
2023-05-08T13:31:06.514Z,100981.63
2023-05-08T13:33:39.371Z,100980.16
2023-05-08T13:36:09.381Z,100980.16
2023-05-08T13:38:38.608Z,100978.28
2023-05-08T13:41:07.762Z,100966.03
2023-05-08T13:43:39.165Z,100969.78
2023-05-08T13:46:08.431Z,100975.69
2023-05-08T13:48:37.648Z,100971.41
2023-05-08T13:51:06.960Z,100979.41
2023-05-08T13:53:36.303Z,100981.41
2023-05-08T13:56:06.216Z,100994.72
2023-05-08T13:58:35.465Z,100994.94
2023-05-08T14:01:17.554Z,100992.72
2023-05-08T14:03:54.411Z,100993.28
2023-05-08T14:06:23.989Z,100990.63
2023-05-08T14:08:55.478Z,100992.88
2023-05-08T14:11:26.442Z,101002.84
2023-05-08T14:13:55.630Z,100990.94
2023-05-08T14:16:24.906Z,100992.44
2023-05-08T14:18:54.148Z,100998.19
2023-05-08T14:21:23.256Z,100990.25
2023-05-08T14:23:52.559Z,100990.56
2023-05-08T14:26:22.399Z,101001.44
2023-05-08T14:28:52.854Z,101009.03
2023-05-08T14:31:22.001Z,101012.28
2023-05-08T14:33:51.239Z,101005.69
2023-05-08T14:36:20.413Z,100996.81
2023-05-08T14:38:49.570Z,101002.25
2023-05-08T14:41:18.764Z,100994.53
2023-05-08T14:43:50.439Z,100992.03
2023-05-08T14:46:19.651Z,101001.09
2023-05-08T14:48:49.590Z,100999.91
2023-05-08T14:51:20.263Z,100997.75
2023-05-08T14:53:49.769Z,100991.34
2023-05-08T14:56:19.347Z,100995.91
2023-05-08T14:58:52.423Z,100994.38
2023-05-08T15:01:23.047Z,100997.78
2023-05-08T15:03:54.195Z,100995.00
2023-05-08T15:06:26.163Z,100994.56
2023-05-08T15:08:55.507Z,100996.28
2023-05-08T15:11:24.636Z,101000.19
2023-05-08T15:13:54.005Z,100996.63
2023-05-08T15:16:23.459Z,101009.38
2023-05-08T15:18:52.618Z,101001.06
2023-05-08T15:21:26.994Z,101002.09
2023-05-08T15:23:57.118Z,101002.81
2023-05-08T15:26:26.567Z,101000.44
2023-05-08T15:28:55.784Z,100993.94
2023-05-08T15:31:25.017Z,101001.56
2023-05-08T15:33:54.207Z,101007.19
2023-05-08T15:36:23.858Z,101002.47
2023-05-08T15:38:54.974Z,101007.06
2023-05-08T15:41:24.200Z,101006.88
2023-05-08T15:43:53.331Z,101002.09
2023-05-08T15:46:23.238Z,101002.03
2023-05-08T15:48:52.601Z,100996.38
2023-05-08T15:51:21.761Z,100995.81
2023-05-08T15:53:53.065Z,101002.56
2023-05-08T15:56:25.578Z,100999.50
2023-05-08T15:58:55.126Z,100999.59
2023-05-08T16:01:25.049Z,100998.34
2023-05-08T16:03:54.569Z,101000.50
2023-05-08T16:06:23.873Z,101000.06
2023-05-08T16:08:53.947Z,100996.00
2023-05-08T16:11:23.476Z,100996.88
2023-05-08T16:13:53.461Z,100992.16
2023-05-08T16:16:26.992Z,100996.53
2023-05-08T16:18:56.730Z,100990.59
2023-05-08T16:21:31.192Z,100990.16
2023-05-08T16:24:04.015Z,100998.50
2023-05-08T16:26:33.399Z,100991.44
2023-05-08T16:29:02.745Z,100994.63
2023-05-08T16:31:31.995Z,100985.09
2023-05-08T16:34:02.110Z,100985.91
2023-05-08T16:36:34.420Z,100990.72
2023-05-08T16:39:04.046Z,100981.16
2023-05-08T16:41:34.031Z,100977.97
2023-05-08T16:44:03.442Z,100984.31
2023-05-08T16:46:32.737Z,100985.47
2023-05-08T16:49:02.573Z,100978.38
2023-05-08T16:51:33.294Z,100976.44
2023-05-08T16:54:03.228Z,100975.25
2023-05-08T16:56:35.978Z,100982.41
2023-05-08T16:59:07.511Z,100978.03
2023-05-08T17:01:36.793Z,100979.63
2023-05-08T17:04:05.886Z,100978.84
2023-05-08T17:06:34.917Z,100973.28
2023-05-08T17:09:04.042Z,100979.66
2023-05-08T17:11:36.545Z,100976.47
2023-05-08T17:14:05.729Z,100989.19
2023-05-08T17:16:34.969Z,100978.06
2023-05-08T17:19:13.540Z,100977.69
2023-05-08T17:21:42.746Z,100979.66
2023-05-08T17:24:14.615Z,100977.28
2023-05-08T17:26:44.406Z,100978.88
2023-05-08T17:29:13.493Z,100970.03
2023-05-08T17:31:42.588Z,100969.28
2023-05-08T17:34:11.710Z,100971.63
2023-05-08T17:36:40.591Z,100970.06
2023-05-08T17:39:12.659Z,100978.81
2023-05-08T17:41:41.669Z,100970.00
2023-05-08T17:44:10.645Z,100967.56
2023-05-08T17:46:39.735Z,100960.44
2023-05-08T17:49:08.828Z,100962.75
2023-05-08T17:51:37.873Z,100970.69
2023-05-08T17:54:07.722Z,100967.38
2023-05-08T17:56:37.425Z,100965.59
2023-05-08T17:59:06.799Z,100961.09
2023-05-08T18:01:35.733Z,100957.88
2023-05-08T18:04:05.125Z,100960.13
2023-05-08T18:06:34.143Z,100960.13
2023-05-08T18:09:03.284Z,100962.53
2023-05-08T18:11:32.367Z,100956.88
2023-05-08T18:14:01.336Z,100960.25
2023-05-08T18:16:30.423Z,100961.81
2023-05-08T18:18:59.417Z,100962.91
2023-05-08T18:21:29.657Z,100952.13
2023-05-08T18:23:58.584Z,100959.16
2023-05-08T18:26:27.497Z,100953.53
2023-05-08T18:28:56.964Z,100953.38
2023-05-08T18:31:29.031Z,100952.09
2023-05-08T18:33:57.992Z,100957.09
2023-05-08T18:36:27.255Z,100949.09
2023-05-08T18:38:56.356Z,100954.19
2023-05-08T18:41:25.254Z,100948.63
2023-05-08T18:43:54.371Z,100948.19
2023-05-08T18:46:23.482Z,100928.00
2023-05-08T18:48:52.372Z,100931.94
2023-05-08T18:51:21.572Z,100940.72
2023-05-08T18:53:50.464Z,100935.28
2023-05-08T18:56:20.425Z,100927.56
2023-05-08T18:58:50.010Z,100934.06
2023-05-08T19:01:20.719Z,100929.72
2023-05-08T19:03:49.672Z,100925.75
2023-05-08T19:06:18.842Z,100933.41
2023-05-08T19:08:48.328Z,100921.00
2023-05-08T19:11:17.820Z,100925.97
2023-05-08T19:13:46.778Z,100928.22
2023-05-08T19:16:15.871Z,100912.34
2023-05-08T19:18:44.841Z,100911.72
2023-05-08T19:21:13.939Z,100899.28
2023-05-08T19:23:42.939Z,100903.09
2023-05-08T19:26:12.948Z,100903.50
2023-05-08T19:28:42.064Z,100898.22
2023-05-08T19:31:11.051Z,100898.94
2023-05-08T19:33:40.062Z,100906.41
2023-05-08T19:36:09.038Z,100895.44
2023-05-08T19:38:40.833Z,100894.41
2023-05-08T19:41:10.066Z,100890.59
2023-05-08T19:43:47.690Z,100877.59
2023-05-08T19:46:20.550Z,100884.00
2023-05-08T19:48:49.490Z,100869.09
2023-05-08T19:51:18.773Z,100875.34
2023-05-08T19:53:47.732Z,100866.25
2023-05-08T19:56:16.760Z,100869.97
2023-05-08T19:58:45.700Z,100871.84
2023-05-08T20:01:15.051Z,100865.38
2023-05-08T20:03:44.179Z,100870.31
2023-05-08T20:06:13.375Z,100858.22
2023-05-08T20:08:42.418Z,100857.16
2023-05-08T20:11:12.581Z,100855.06
2023-05-08T20:13:41.712Z,100861.19
2023-05-08T20:16:10.658Z,100858.78
2023-05-08T20:18:40.007Z,100854.19
2023-05-08T20:21:09.042Z,100856.91
2023-05-08T20:23:39.771Z,100857.50
2023-05-08T20:26:09.540Z,100859.44
2023-05-08T20:28:38.648Z,100851.28
2023-05-08T20:31:08.378Z,100841.63
2023-05-08T20:33:37.612Z,100845.56
2023-05-08T20:36:06.723Z,100835.84
2023-05-08T20:38:37.588Z,100836.97
2023-05-08T20:41:06.809Z,100832.72
2023-05-08T20:43:35.677Z,100837.44
2023-05-08T20:46:04.755Z,100837.78
2023-05-08T20:48:33.761Z,100834.06
2023-05-08T20:51:02.951Z,100837.66
2023-05-08T20:53:32.891Z,100822.72
2023-05-08T20:56:06.202Z,100826.06
2023-05-08T20:58:35.794Z,100829.28
2023-05-08T21:01:04.981Z,100829.63
2023-05-08T21:03:34.674Z,100822.94
2023-05-08T21:06:04.395Z,100823.22
2023-05-08T21:08:33.418Z,100824.50
2023-05-08T21:11:03.063Z,100817.69
2023-05-08T21:13:32.864Z,100821.78
2023-05-08T21:16:01.837Z,100827.13
2023-05-08T21:18:30.783Z,100821.75
2023-05-08T21:20:59.747Z,100816.19
2023-05-08T21:23:30.938Z,100827.69
2023-05-08T21:25:59.974Z,100824.63
2023-05-08T21:28:29.074Z,100827.47
2023-05-08T21:30:58.782Z,100822.31
2023-05-08T21:33:27.737Z,100827.66
2023-05-08T21:35:56.803Z,100833.66
2023-05-08T21:38:25.921Z,100827.66
2023-05-08T21:40:54.859Z,100834.66
2023-05-08T21:43:23.934Z,100836.34
2023-05-08T21:45:53.607Z,100836.44
2023-05-08T21:48:23.780Z,100836.28
2023-05-08T21:50:52.848Z,100833.75
2023-05-08T21:53:21.773Z,100839.38
2023-05-08T21:55:50.700Z,100842.56
2023-05-08T21:58:19.683Z,100844.06
2023-05-08T22:00:48.903Z,100837.88
2023-05-08T22:03:17.928Z,100840.81
2023-05-08T22:05:48.224Z,100847.38
2023-05-08T22:08:17.331Z,100847.72
2023-05-08T22:10:47.098Z,100844.50
2023-05-08T22:13:16.120Z,100848.63
2023-05-08T22:15:45.149Z,100855.75
2023-05-08T22:18:15.143Z,100843.19
2023-05-08T22:20:44.191Z,100848.00
2023-05-08T22:23:13.084Z,100850.44
2023-05-08T22:25:42.068Z,100857.06
2023-05-08T22:28:11.347Z,100852.34
2023-05-08T22:30:40.317Z,100850.91
2023-05-08T22:33:09.281Z,100847.06
2023-05-08T22:35:38.425Z,100847.94
2023-05-08T22:38:07.440Z,100843.38
2023-05-08T22:40:37.037Z,100847.13
2023-05-08T22:43:06.454Z,100840.38
2023-05-08T22:45:35.878Z,100839.25
2023-05-08T22:48:05.278Z,100837.66
2023-05-08T22:50:34.261Z,100839.72
2023-05-08T22:53:08.695Z,100839.34
2023-05-08T22:55:38.383Z,100840.78
2023-05-08T22:58:07.809Z,100843.81
2023-05-08T23:00:36.958Z,100850.50
2023-05-08T23:03:06.072Z,100843.72
2023-05-08T23:05:35.209Z,100850.13
2023-05-08T23:08:04.556Z,100847.94
2023-05-08T23:10:33.630Z,100853.97
2023-05-08T23:13:05.072Z,100850.81
2023-05-08T23:15:34.076Z,100843.03
2023-05-08T23:18:03.336Z,100841.88
2023-05-08T23:20:32.389Z,100840.28
2023-05-08T23:23:01.341Z,100848.47
2023-05-08T23:25:30.254Z,100844.53
2023-05-08T23:27:59.268Z,100836.97
2023-05-08T23:30:28.440Z,100841.81
2023-05-08T23:32:57.422Z,100843.47
2023-05-08T23:35:26.549Z,100838.06
2023-05-08T23:37:55.505Z,100833.69
2023-05-08T23:40:24.604Z,100838.25
2023-05-08T23:42:53.675Z,100844.72
2023-05-08T23:45:23.130Z,100842.75
2023-05-08T23:47:52.505Z,100842.13
2023-05-08T23:50:21.665Z,100834.44
2023-05-08T23:52:50.616Z,100834.97
2023-05-08T23:55:19.619Z,100840.28
2023-05-08T23:57:48.622Z,100840.31
